sensor_id;sensor_type;location;lat;lon;timestamp;P1;durP1;ratioP1;P2;durP2;ratioP2
5175;SDS011;2607;50.934;6.934;2023-08-06T00:02:04;6.00;;;3.80;;
5175;SDS011;2607;50.934;6.934;2023-08-06T00:04:30;4.50;;;3.63;;
5175;SDS011;2607;50.934;6.934;2023-08-06T00:06:55;3.80;;;3.40;;
5175;SDS011;2607;50.934;6.934;2023-08-06T00:09:21;4.17;;;3.80;;
5175;SDS011;2607;50.934;6.934;2023-08-06T00:11:46;4.07;;;3.70;;
5175;SDS011;2607;50.934;6.934;2023-08-06T00:14:12;3.90;;;3.60;;
5175;SDS011;2607;50.934;6.934;2023-08-06T00:16:40;3.97;;;3.77;;
5175;SDS011;2607;50.934;6.934;2023-08-06T00:19:08;3.70;;;3.30;;
5175;SDS011;2607;50.934;6.934;2023-08-06T00:21:33;3.87;;;3.50;;
5175;SDS011;2607;50.934;6.934;2023-08-06T00:23:59;4.10;;;3.80;;
5175;SDS011;2607;50.934;6.934;2023-08-06T00:26:24;4.67;;;3.67;;
5175;SDS011;2607;50.934;6.934;2023-08-06T00:28:50;3.97;;;3.67;;
5175;SDS011;2607;50.934;6.934;2023-08-06T00:31:16;3.80;;;3.60;;
5175;SDS011;2607;50.934;6.934;2023-08-06T00:33:42;4.30;;;3.90;;
5175;SDS011;2607;50.934;6.934;2023-08-06T00:36:07;4.33;;;3.93;;
5175;SDS011;2607;50.934;6.934;2023-08-06T00:38:33;4.40;;;4.00;;
5175;SDS011;2607;50.934;6.934;2023-08-06T00:40:58;4.80;;;4.30;;
5175;SDS011;2607;50.934;6.934;2023-08-06T00:43:24;4.53;;;4.13;;
5175;SDS011;2607;50.934;6.934;2023-08-06T00:45:49;4.50;;;3.97;;
5175;SDS011;2607;50.934;6.934;2023-08-06T00:48:15;6.90;;;4.17;;
5175;SDS011;2607;50.934;6.934;2023-08-06T00:50:41;6.60;;;3.90;;
5175;SDS011;2607;50.934;6.934;2023-08-06T00:53:07;5.13;;;4.47;;
5175;SDS011;2607;50.934;6.934;2023-08-06T00:55:33;5.13;;;4.63;;
5175;SDS011;2607;50.934;6.934;2023-08-06T00:57:59;9.13;;;6.93;;
5175;SDS011;2607;50.934;6.934;2023-08-06T01:00:25;5.77;;;5.27;;
5175;SDS011;2607;50.934;6.934;2023-08-06T01:02:51;5.20;;;4.70;;
5175;SDS011;2607;50.934;6.934;2023-08-06T01:05:17;5.50;;;5.10;;
5175;SDS011;2607;50.934;6.934;2023-08-06T01:10:19;3.87;;;3.67;;
5175;SDS011;2607;50.934;6.934;2023-08-06T01:16:03;4.87;;;4.07;;
5175;SDS011;2607;50.934;6.934;2023-08-06T01:18:30;4.70;;;4.20;;
5175;SDS011;2607;50.934;6.934;2023-08-06T01:20:56;3.30;;;3.10;;
5175;SDS011;2607;50.934;6.934;2023-08-06T01:23:22;4.30;;;3.90;;
5175;SDS011;2607;50.934;6.934;2023-08-06T01:28:46;4.03;;;3.60;;
5175;SDS011;2607;50.934;6.934;2023-08-06T01:31:15;6.57;;;4.20;;
5175;SDS011;2607;50.934;6.934;2023-08-06T01:33:46;3.73;;;3.43;;
5175;SDS011;2607;50.934;6.934;2023-08-06T01:36:15;3.77;;;3.57;;
5175;SDS011;2607;50.934;6.934;2023-08-06T01:38:43;5.90;;;4.17;;
5175;SDS011;2607;50.934;6.934;2023-08-06T01:41:09;4.73;;;3.80;;
5175;SDS011;2607;50.934;6.934;2023-08-06T01:43:34;3.63;;;3.43;;
5175;SDS011;2607;50.934;6.934;2023-08-06T01:46:00;7.10;;;3.50;;
5175;SDS011;2607;50.934;6.934;2023-08-06T01:48:25;4.00;;;3.47;;
5175;SDS011;2607;50.934;6.934;2023-08-06T01:50:51;5.67;;;4.20;;
5175;SDS011;2607;50.934;6.934;2023-08-06T01:53:17;3.20;;;3.10;;
5175;SDS011;2607;50.934;6.934;2023-08-06T01:55:47;3.73;;;3.50;;
5175;SDS011;2607;50.934;6.934;2023-08-06T01:58:13;4.10;;;3.87;;
5175;SDS011;2607;50.934;6.934;2023-08-06T02:00:39;3.90;;;3.70;;
5175;SDS011;2607;50.934;6.934;2023-08-06T02:03:05;3.90;;;3.60;;
5175;SDS011;2607;50.934;6.934;2023-08-06T02:05:30;3.73;;;3.53;;
5175;SDS011;2607;50.934;6.934;2023-08-06T02:07:56;4.37;;;3.20;;
5175;SDS011;2607;50.934;6.934;2023-08-06T02:10:22;4.13;;;3.73;;
5175;SDS011;2607;50.934;6.934;2023-08-06T02:12:47;4.00;;;3.70;;
5175;SDS011;2607;50.934;6.934;2023-08-06T02:15:13;3.93;;;3.67;;
5175;SDS011;2607;50.934;6.934;2023-08-06T02:17:38;3.57;;;3.37;;
5175;SDS011;2607;50.934;6.934;2023-08-06T02:20:04;3.63;;;3.30;;
5175;SDS011;2607;50.934;6.934;2023-08-06T02:22:30;6.57;;;3.43;;
5175;SDS011;2607;50.934;6.934;2023-08-06T02:24:56;3.33;;;3.13;;
5175;SDS011;2607;50.934;6.934;2023-08-06T02:27:21;3.30;;;3.10;;
5175;SDS011;2607;50.934;6.934;2023-08-06T02:29:47;4.00;;;3.70;;
5175;SDS011;2607;50.934;6.934;2023-08-06T02:32:12;4.10;;;3.80;;
5175;SDS011;2607;50.934;6.934;2023-08-06T02:34:38;3.60;;;3.40;;
5175;SDS011;2607;50.934;6.934;2023-08-06T02:37:04;3.73;;;3.40;;
5175;SDS011;2607;50.934;6.934;2023-08-06T02:39:29;3.30;;;3.20;;
5175;SDS011;2607;50.934;6.934;2023-08-06T02:41:55;6.70;;;3.30;;
5175;SDS011;2607;50.934;6.934;2023-08-06T02:44:20;3.73;;;3.40;;
5175;SDS011;2607;50.934;6.934;2023-08-06T02:46:46;4.27;;;3.87;;
5175;SDS011;2607;50.934;6.934;2023-08-06T02:49:11;4.00;;;3.80;;
5175;SDS011;2607;50.934;6.934;2023-08-06T02:51:37;4.90;;;3.60;;
5175;SDS011;2607;50.934;6.934;2023-08-06T02:54:02;3.80;;;3.50;;
5175;SDS011;2607;50.934;6.934;2023-08-06T02:56:28;3.30;;;3.10;;
5175;SDS011;2607;50.934;6.934;2023-08-06T02:58:53;3.97;;;3.63;;
5175;SDS011;2607;50.934;6.934;2023-08-06T03:01:19;3.13;;;2.93;;
5175;SDS011;2607;50.934;6.934;2023-08-06T03:03:44;3.30;;;3.13;;
5175;SDS011;2607;50.934;6.934;2023-08-06T03:06:10;3.80;;;3.50;;
5175;SDS011;2607;50.934;6.934;2023-08-06T03:08:36;3.90;;;3.60;;
5175;SDS011;2607;50.934;6.934;2023-08-06T03:11:02;3.53;;;3.43;;
5175;SDS011;2607;50.934;6.934;2023-08-06T03:13:27;3.60;;;3.40;;
5175;SDS011;2607;50.934;6.934;2023-08-06T03:15:54;3.10;;;2.93;;
5175;SDS011;2607;50.934;6.934;2023-08-06T03:18:20;3.67;;;3.40;;
5175;SDS011;2607;50.934;6.934;2023-08-06T03:20:46;3.43;;;3.20;;
5175;SDS011;2607;50.934;6.934;2023-08-06T03:23:12;4.10;;;3.70;;
5175;SDS011;2607;50.934;6.934;2023-08-06T03:25:37;8.87;;;4.30;;
5175;SDS011;2607;50.934;6.934;2023-08-06T03:28:03;4.47;;;4.07;;
5175;SDS011;2607;50.934;6.934;2023-08-06T03:30:28;9.83;;;3.53;;
5175;SDS011;2607;50.934;6.934;2023-08-06T03:32:54;4.43;;;4.03;;
5175;SDS011;2607;50.934;6.934;2023-08-06T03:35:20;4.87;;;4.30;;
5175;SDS011;2607;50.934;6.934;2023-08-06T03:37:45;6.53;;;4.20;;
5175;SDS011;2607;50.934;6.934;2023-08-06T03:40:11;4.13;;;3.40;;
5175;SDS011;2607;50.934;6.934;2023-08-06T03:42:36;3.70;;;3.43;;
5175;SDS011;2607;50.934;6.934;2023-08-06T03:45:02;3.30;;;3.10;;
5175;SDS011;2607;50.934;6.934;2023-08-06T03:47:28;3.87;;;3.57;;
5175;SDS011;2607;50.934;6.934;2023-08-06T03:49:53;6.40;;;4.30;;
5175;SDS011;2607;50.934;6.934;2023-08-06T03:52:19;5.10;;;4.17;;
5175;SDS011;2607;50.934;6.934;2023-08-06T03:54:44;4.47;;;4.10;;
5175;SDS011;2607;50.934;6.934;2023-08-06T03:57:10;3.60;;;3.30;;
5175;SDS011;2607;50.934;6.934;2023-08-06T03:59:36;3.27;;;3.17;;
5175;SDS011;2607;50.934;6.934;2023-08-06T04:02:01;3.30;;;3.10;;
5175;SDS011;2607;50.934;6.934;2023-08-06T04:04:27;3.47;;;3.27;;
5175;SDS011;2607;50.934;6.934;2023-08-06T04:06:53;3.27;;;3.17;;
5175;SDS011;2607;50.934;6.934;2023-08-06T04:09:18;3.43;;;3.13;;
5175;SDS011;2607;50.934;6.934;2023-08-06T04:11:44;3.43;;;3.23;;
5175;SDS011;2607;50.934;6.934;2023-08-06T04:14:09;8.30;;;3.20;;
5175;SDS011;2607;50.934;6.934;2023-08-06T04:16:35;4.40;;;3.30;;
5175;SDS011;2607;50.934;6.934;2023-08-06T04:19:01;3.00;;;2.77;;
5175;SDS011;2607;50.934;6.934;2023-08-06T04:21:26;3.10;;;2.90;;
5175;SDS011;2607;50.934;6.934;2023-08-06T04:23:52;3.53;;;3.33;;
5175;SDS011;2607;50.934;6.934;2023-08-06T04:26:17;3.13;;;2.93;;
5175;SDS011;2607;50.934;6.934;2023-08-06T04:28:43;4.30;;;2.67;;
5175;SDS011;2607;50.934;6.934;2023-08-06T04:31:08;2.63;;;2.53;;
5175;SDS011;2607;50.934;6.934;2023-08-06T04:33:34;2.90;;;2.53;;
5175;SDS011;2607;50.934;6.934;2023-08-06T04:36:00;3.97;;;3.13;;
5175;SDS011;2607;50.934;6.934;2023-08-06T04:38:25;4.47;;;2.80;;
5175;SDS011;2607;50.934;6.934;2023-08-06T04:40:51;4.10;;;3.00;;
5175;SDS011;2607;50.934;6.934;2023-08-06T04:43:17;3.87;;;3.27;;
5175;SDS011;2607;50.934;6.934;2023-08-06T04:45:49;6.03;;;2.73;;
5175;SDS011;2607;50.934;6.934;2023-08-06T04:48:15;2.93;;;2.80;;
5175;SDS011;2607;50.934;6.934;2023-08-06T04:50:44;4.03;;;3.73;;
5175;SDS011;2607;50.934;6.934;2023-08-06T04:53:11;4.20;;;3.60;;
5175;SDS011;2607;50.934;6.934;2023-08-06T04:55:36;3.80;;;3.27;;
5175;SDS011;2607;50.934;6.934;2023-08-06T04:58:02;3.30;;;3.10;;
5175;SDS011;2607;50.934;6.934;2023-08-06T05:00:28;5.23;;;3.20;;
5175;SDS011;2607;50.934;6.934;2023-08-06T05:02:53;7.73;;;3.33;;
5175;SDS011;2607;50.934;6.934;2023-08-06T05:05:19;3.83;;;3.20;;
5175;SDS011;2607;50.934;6.934;2023-08-06T05:07:45;6.53;;;3.13;;
5175;SDS011;2607;50.934;6.934;2023-08-06T05:10:13;3.03;;;2.80;;
5175;SDS011;2607;50.934;6.934;2023-08-06T05:12:39;3.50;;;3.13;;
5175;SDS011;2607;50.934;6.934;2023-08-06T05:15:05;3.47;;;3.27;;
5175;SDS011;2607;50.934;6.934;2023-08-06T05:17:31;7.77;;;3.10;;
5175;SDS011;2607;50.934;6.934;2023-08-06T05:19:56;3.37;;;3.17;;
5175;SDS011;2607;50.934;6.934;2023-08-06T05:22:22;4.70;;;3.37;;
5175;SDS011;2607;50.934;6.934;2023-08-06T05:24:47;3.70;;;3.40;;
5175;SDS011;2607;50.934;6.934;2023-08-06T05:27:13;3.63;;;3.30;;
5175;SDS011;2607;50.934;6.934;2023-08-06T05:29:38;3.50;;;3.23;;
5175;SDS011;2607;50.934;6.934;2023-08-06T05:32:04;4.63;;;3.50;;
5175;SDS011;2607;50.934;6.934;2023-08-06T05:34:30;4.10;;;3.70;;
5175;SDS011;2607;50.934;6.934;2023-08-06T05:36:55;3.70;;;3.40;;
5175;SDS011;2607;50.934;6.934;2023-08-06T05:39:21;3.03;;;2.83;;
5175;SDS011;2607;50.934;6.934;2023-08-06T05:41:46;3.27;;;3.13;;
5175;SDS011;2607;50.934;6.934;2023-08-06T05:44:12;4.57;;;3.80;;
5175;SDS011;2607;50.934;6.934;2023-08-06T05:46:37;3.10;;;2.90;;
5175;SDS011;2607;50.934;6.934;2023-08-06T05:49:03;3.63;;;3.30;;
5175;SDS011;2607;50.934;6.934;2023-08-06T05:51:30;3.17;;;2.93;;
5175;SDS011;2607;50.934;6.934;2023-08-06T05:53:55;3.60;;;3.00;;
5175;SDS011;2607;50.934;6.934;2023-08-06T05:56:21;3.10;;;2.90;;
5175;SDS011;2607;50.934;6.934;2023-08-06T05:58:46;3.50;;;3.20;;
5175;SDS011;2607;50.934;6.934;2023-08-06T06:01:12;4.20;;;3.53;;
5175;SDS011;2607;50.934;6.934;2023-08-06T06:03:38;4.53;;;3.40;;
5175;SDS011;2607;50.934;6.934;2023-08-06T06:06:03;3.50;;;3.30;;
5175;SDS011;2607;50.934;6.934;2023-08-06T06:08:29;3.67;;;3.47;;
5175;SDS011;2607;50.934;6.934;2023-08-06T06:10:54;8.13;;;2.90;;
5175;SDS011;2607;50.934;6.934;2023-08-06T06:13:20;3.60;;;3.40;;
5175;SDS011;2607;50.934;6.934;2023-08-06T06:15:46;3.60;;;3.40;;
5175;SDS011;2607;50.934;6.934;2023-08-06T06:18:12;3.63;;;3.07;;
5175;SDS011;2607;50.934;6.934;2023-08-06T06:20:38;3.60;;;3.30;;
5175;SDS011;2607;50.934;6.934;2023-08-06T06:23:03;3.87;;;3.60;;
5175;SDS011;2607;50.934;6.934;2023-08-06T06:25:29;3.87;;;3.47;;
5175;SDS011;2607;50.934;6.934;2023-08-06T06:27:54;4.77;;;3.30;;
5175;SDS011;2607;50.934;6.934;2023-08-06T06:30:21;3.70;;;2.97;;
5175;SDS011;2607;50.934;6.934;2023-08-06T06:32:47;3.00;;;2.90;;
5175;SDS011;2607;50.934;6.934;2023-08-06T06:35:12;3.40;;;3.10;;
5175;SDS011;2607;50.934;6.934;2023-08-06T06:37:38;2.80;;;2.70;;
5175;SDS011;2607;50.934;6.934;2023-08-06T06:40:03;2.73;;;2.30;;
5175;SDS011;2607;50.934;6.934;2023-08-06T06:42:29;2.23;;;2.03;;
5175;SDS011;2607;50.934;6.934;2023-08-06T06:44:55;1.90;;;1.80;;
5175;SDS011;2607;50.934;6.934;2023-08-06T06:47:21;1.60;;;1.50;;
5175;SDS011;2607;50.934;6.934;2023-08-06T06:49:46;1.30;;;1.30;;
5175;SDS011;2607;50.934;6.934;2023-08-06T06:52:12;1.43;;;1.33;;
5175;SDS011;2607;50.934;6.934;2023-08-06T06:54:37;1.47;;;1.27;;
5175;SDS011;2607;50.934;6.934;2023-08-06T06:57:03;1.60;;;1.60;;
5175;SDS011;2607;50.934;6.934;2023-08-06T06:59:29;1.90;;;1.37;;
5175;SDS011;2607;50.934;6.934;2023-08-06T07:01:55;1.50;;;1.50;;
5175;SDS011;2607;50.934;6.934;2023-08-06T07:04:20;1.30;;;1.20;;
5175;SDS011;2607;50.934;6.934;2023-08-06T07:06:46;1.60;;;1.50;;
5175;SDS011;2607;50.934;6.934;2023-08-06T07:09:12;1.70;;;1.70;;
5175;SDS011;2607;50.934;6.934;2023-08-06T07:11:38;3.70;;;1.60;;
5175;SDS011;2607;50.934;6.934;2023-08-06T07:14:03;1.77;;;1.67;;
5175;SDS011;2607;50.934;6.934;2023-08-06T07:16:29;1.70;;;1.60;;
5175;SDS011;2607;50.934;6.934;2023-08-06T07:18:54;1.37;;;1.30;;
5175;SDS011;2607;50.934;6.934;2023-08-06T07:21:20;1.87;;;1.77;;
5175;SDS011;2607;50.934;6.934;2023-08-06T07:23:46;1.60;;;1.50;;
5175;SDS011;2607;50.934;6.934;2023-08-06T07:26:14;1.30;;;1.30;;
5175;SDS011;2607;50.934;6.934;2023-08-06T07:28:40;1.63;;;1.47;;
5175;SDS011;2607;50.934;6.934;2023-08-06T07:31:05;1.70;;;1.60;;
5175;SDS011;2607;50.934;6.934;2023-08-06T07:33:31;2.03;;;1.50;;
5175;SDS011;2607;50.934;6.934;2023-08-06T07:35:56;1.53;;;1.37;;
5175;SDS011;2607;50.934;6.934;2023-08-06T07:38:22;1.30;;;1.30;;
5175;SDS011;2607;50.934;6.934;2023-08-06T07:40:47;1.57;;;1.57;;
5175;SDS011;2607;50.934;6.934;2023-08-06T07:43:13;1.77;;;1.67;;
5175;SDS011;2607;50.934;6.934;2023-08-06T07:45:39;1.60;;;1.60;;
5175;SDS011;2607;50.934;6.934;2023-08-06T07:48:04;4.10;;;1.80;;
5175;SDS011;2607;50.934;6.934;2023-08-06T07:50:30;1.80;;;1.70;;
5175;SDS011;2607;50.934;6.934;2023-08-06T07:52:56;3.23;;;1.77;;
5175;SDS011;2607;50.934;6.934;2023-08-06T07:55:22;1.90;;;1.70;;
5175;SDS011;2607;50.934;6.934;2023-08-06T07:57:47;11.43;;;8.73;;
5175;SDS011;2607;50.934;6.934;2023-08-06T08:00:13;1.97;;;1.87;;
5175;SDS011;2607;50.934;6.934;2023-08-06T08:02:39;3.17;;;2.87;;
5175;SDS011;2607;50.934;6.934;2023-08-06T08:05:04;2.10;;;1.90;;
5175;SDS011;2607;50.934;6.934;2023-08-06T08:07:32;2.10;;;2.00;;
5175;SDS011;2607;50.934;6.934;2023-08-06T08:09:57;1.80;;;1.80;;
5175;SDS011;2607;50.934;6.934;2023-08-06T08:12:23;14.80;;;11.20;;
5175;SDS011;2607;50.934;6.934;2023-08-06T08:14:49;4.70;;;4.20;;
5175;SDS011;2607;50.934;6.934;2023-08-06T08:17:14;2.43;;;2.33;;
5175;SDS011;2607;50.934;6.934;2023-08-06T08:19:40;1.30;;;1.30;;
5175;SDS011;2607;50.934;6.934;2023-08-06T08:22:06;5.37;;;4.87;;
5175;SDS011;2607;50.934;6.934;2023-08-06T08:24:31;2.90;;;2.20;;
5175;SDS011;2607;50.934;6.934;2023-08-06T08:26:57;1.77;;;1.67;;
5175;SDS011;2607;50.934;6.934;2023-08-06T08:29:22;1.80;;;1.80;;
5175;SDS011;2607;50.934;6.934;2023-08-06T08:31:48;2.23;;;2.13;;
5175;SDS011;2607;50.934;6.934;2023-08-06T08:34:15;1.73;;;1.63;;
5175;SDS011;2607;50.934;6.934;2023-08-06T08:36:41;1.73;;;1.63;;
5175;SDS011;2607;50.934;6.934;2023-08-06T08:39:07;1.73;;;1.63;;
5175;SDS011;2607;50.934;6.934;2023-08-06T08:41:32;1.63;;;1.53;;
5175;SDS011;2607;50.934;6.934;2023-08-06T08:43:59;1.47;;;1.40;;
5175;SDS011;2607;50.934;6.934;2023-08-06T08:46:29;1.93;;;1.70;;
5175;SDS011;2607;50.934;6.934;2023-08-06T08:48:57;1.40;;;1.40;;
5175;SDS011;2607;50.934;6.934;2023-08-06T08:51:24;1.70;;;1.60;;
5175;SDS011;2607;50.934;6.934;2023-08-06T08:53:52;1.57;;;1.47;;
5175;SDS011;2607;50.934;6.934;2023-08-06T08:56:22;2.13;;;2.03;;
5175;SDS011;2607;50.934;6.934;2023-08-06T08:58:48;2.00;;;1.80;;
5175;SDS011;2607;50.934;6.934;2023-08-06T09:01:15;2.13;;;1.93;;
5175;SDS011;2607;50.934;6.934;2023-08-06T09:03:41;2.10;;;2.00;;
5175;SDS011;2607;50.934;6.934;2023-08-06T09:06:08;2.17;;;2.07;;
5175;SDS011;2607;50.934;6.934;2023-08-06T09:08:39;1.73;;;1.73;;
5175;SDS011;2607;50.934;6.934;2023-08-06T09:11:12;4.37;;;4.07;;
5175;SDS011;2607;50.934;6.934;2023-08-06T09:13:37;2.50;;;2.40;;
5175;SDS011;2607;50.934;6.934;2023-08-06T09:16:03;1.73;;;1.63;;
5175;SDS011;2607;50.934;6.934;2023-08-06T09:18:29;1.80;;;1.70;;
5175;SDS011;2607;50.934;6.934;2023-08-06T09:20:56;2.03;;;1.97;;
5175;SDS011;2607;50.934;6.934;2023-08-06T09:23:28;2.90;;;2.00;;
5175;SDS011;2607;50.934;6.934;2023-08-06T09:25:56;1.60;;;1.60;;
5175;SDS011;2607;50.934;6.934;2023-08-06T09:28:22;1.70;;;1.70;;
5175;SDS011;2607;50.934;6.934;2023-08-06T09:30:49;5.40;;;4.10;;
5175;SDS011;2607;50.934;6.934;2023-08-06T09:33:19;2.63;;;2.50;;
5175;SDS011;2607;50.934;6.934;2023-08-06T09:35:45;2.90;;;2.80;;
5175;SDS011;2607;50.934;6.934;2023-08-06T09:38:12;3.33;;;3.10;;
5175;SDS011;2607;50.934;6.934;2023-08-06T09:40:38;5.57;;;3.37;;
5175;SDS011;2607;50.934;6.934;2023-08-06T09:43:04;3.43;;;3.23;;
5175;SDS011;2607;50.934;6.934;2023-08-06T09:45:31;3.70;;;3.50;;
5175;SDS011;2607;50.934;6.934;2023-08-06T09:47:58;4.67;;;4.27;;
5175;SDS011;2607;50.934;6.934;2023-08-06T09:50:30;6.67;;;6.10;;
5175;SDS011;2607;50.934;6.934;2023-08-06T09:52:56;4.57;;;4.30;;
5175;SDS011;2607;50.934;6.934;2023-08-06T09:55:23;4.67;;;4.37;;
5175;SDS011;2607;50.934;6.934;2023-08-06T09:57:51;4.93;;;4.63;;
5175;SDS011;2607;50.934;6.934;2023-08-06T10:00:17;4.30;;;4.10;;
5175;SDS011;2607;50.934;6.934;2023-08-06T10:02:43;4.27;;;4.07;;
5175;SDS011;2607;50.934;6.934;2023-08-06T10:05:10;4.60;;;4.30;;
5175;SDS011;2607;50.934;6.934;2023-08-06T10:07:35;3.83;;;3.20;;
5175;SDS011;2607;50.934;6.934;2023-08-06T10:10:04;3.83;;;3.63;;
5175;SDS011;2607;50.934;6.934;2023-08-06T10:12:31;2.37;;;2.27;;
5175;SDS011;2607;50.934;6.934;2023-08-06T10:15:01;5.23;;;1.87;;
5175;SDS011;2607;50.934;6.934;2023-08-06T10:17:29;1.20;;;1.20;;
5175;SDS011;2607;50.934;6.934;2023-08-06T10:19:56;1.10;;;1.10;;
5175;SDS011;2607;50.934;6.934;2023-08-06T10:22:24;1.63;;;0.97;;
5175;SDS011;2607;50.934;6.934;2023-08-06T10:24:54;1.37;;;0.90;;
5175;SDS011;2607;50.934;6.934;2023-08-06T10:30:22;0.97;;;0.97;;
5175;SDS011;2607;50.934;6.934;2023-08-06T10:32:51;1.10;;;1.10;;
5175;SDS011;2607;50.934;6.934;2023-08-06T10:38:07;1.03;;;1.03;;
5175;SDS011;2607;50.934;6.934;2023-08-06T10:40:35;1.03;;;1.00;;
5175;SDS011;2607;50.934;6.934;2023-08-06T10:43:04;1.10;;;1.10;;
5175;SDS011;2607;50.934;6.934;2023-08-06T10:45:35;1.10;;;1.10;;
5175;SDS011;2607;50.934;6.934;2023-08-06T10:48:02;1.03;;;1.03;;
5175;SDS011;2607;50.934;6.934;2023-08-06T10:50:27;1.20;;;1.20;;
5175;SDS011;2607;50.934;6.934;2023-08-06T10:52:53;1.17;;;1.07;;
5175;SDS011;2607;50.934;6.934;2023-08-06T10:55:23;0.83;;;0.83;;
5175;SDS011;2607;50.934;6.934;2023-08-06T10:57:55;0.50;;;0.50;;
5175;SDS011;2607;50.934;6.934;2023-08-06T11:00:22;0.50;;;0.50;;
5175;SDS011;2607;50.934;6.934;2023-08-06T11:02:49;0.50;;;0.50;;
5175;SDS011;2607;50.934;6.934;2023-08-06T11:05:15;0.50;;;0.50;;
5175;SDS011;2607;50.934;6.934;2023-08-06T11:07:41;0.50;;;0.50;;
5175;SDS011;2607;50.934;6.934;2023-08-06T11:10:08;0.50;;;0.50;;
5175;SDS011;2607;50.934;6.934;2023-08-06T11:12:35;0.50;;;0.50;;
5175;SDS011;2607;50.934;6.934;2023-08-06T11:15:01;0.77;;;0.77;;
5175;SDS011;2607;50.934;6.934;2023-08-06T11:17:29;3.93;;;2.93;;
5175;SDS011;2607;50.934;6.934;2023-08-06T11:19:55;0.50;;;0.50;;
5175;SDS011;2607;50.934;6.934;2023-08-06T11:22:21;0.50;;;0.50;;
5175;SDS011;2607;50.934;6.934;2023-08-06T11:24:48;0.50;;;0.50;;
5175;SDS011;2607;50.934;6.934;2023-08-06T11:27:14;0.50;;;0.50;;
5175;SDS011;2607;50.934;6.934;2023-08-06T11:29:41;0.50;;;0.50;;
5175;SDS011;2607;50.934;6.934;2023-08-06T11:32:08;0.50;;;0.50;;
5175;SDS011;2607;50.934;6.934;2023-08-06T11:34:34;2.50;;;2.30;;
5175;SDS011;2607;50.934;6.934;2023-08-06T11:37:00;0.50;;;0.50;;
5175;SDS011;2607;50.934;6.934;2023-08-06T11:39:28;0.50;;;0.50;;
5175;SDS011;2607;50.934;6.934;2023-08-06T11:41:53;0.50;;;0.50;;
5175;SDS011;2607;50.934;6.934;2023-08-06T11:44:19;3.90;;;2.50;;
5175;SDS011;2607;50.934;6.934;2023-08-06T11:52:18;0.50;;;0.50;;
5175;SDS011;2607;50.934;6.934;2023-08-06T11:55:04;0.50;;;0.50;;
5175;SDS011;2607;50.934;6.934;2023-08-06T11:57:33;0.50;;;0.50;;
5175;SDS011;2607;50.934;6.934;2023-08-06T12:00:06;0.50;;;0.50;;
5175;SDS011;2607;50.934;6.934;2023-08-06T12:02:34;0.50;;;0.50;;
5175;SDS011;2607;50.934;6.934;2023-08-06T12:05:09;0.50;;;0.50;;
5175;SDS011;2607;50.934;6.934;2023-08-06T12:07:39;0.50;;;0.50;;
5175;SDS011;2607;50.934;6.934;2023-08-06T12:10:15;0.80;;;0.80;;
5175;SDS011;2607;50.934;6.934;2023-08-06T12:12:41;0.50;;;0.50;;
5175;SDS011;2607;50.934;6.934;2023-08-06T12:15:07;0.50;;;0.50;;
5175;SDS011;2607;50.934;6.934;2023-08-06T12:17:34;0.50;;;0.50;;
5175;SDS011;2607;50.934;6.934;2023-08-06T12:20:01;0.50;;;0.50;;
5175;SDS011;2607;50.934;6.934;2023-08-06T12:22:30;0.50;;;0.50;;
5175;SDS011;2607;50.934;6.934;2023-08-06T12:24:59;0.50;;;0.50;;
5175;SDS011;2607;50.934;6.934;2023-08-06T12:27:26;0.63;;;0.63;;
5175;SDS011;2607;50.934;6.934;2023-08-06T12:29:51;0.50;;;0.50;;
5175;SDS011;2607;50.934;6.934;2023-08-06T12:32:17;1.17;;;1.07;;
5175;SDS011;2607;50.934;6.934;2023-08-06T12:34:44;0.60;;;0.60;;
5175;SDS011;2607;50.934;6.934;2023-08-06T12:37:09;0.50;;;0.50;;
5175;SDS011;2607;50.934;6.934;2023-08-06T12:39:35;0.50;;;0.50;;
5175;SDS011;2607;50.934;6.934;2023-08-06T12:42:02;0.50;;;0.50;;
5175;SDS011;2607;50.934;6.934;2023-08-06T12:44:29;0.50;;;0.50;;
5175;SDS011;2607;50.934;6.934;2023-08-06T12:46:54;0.50;;;0.50;;
5175;SDS011;2607;50.934;6.934;2023-08-06T12:49:20;0.50;;;0.50;;
5175;SDS011;2607;50.934;6.934;2023-08-06T12:51:49;0.50;;;0.50;;
5175;SDS011;2607;50.934;6.934;2023-08-06T12:54:16;0.50;;;0.50;;
5175;SDS011;2607;50.934;6.934;2023-08-06T12:56:43;0.50;;;0.50;;
5175;SDS011;2607;50.934;6.934;2023-08-06T12:59:09;0.50;;;0.50;;
5175;SDS011;2607;50.934;6.934;2023-08-06T13:01:34;0.50;;;0.50;;
5175;SDS011;2607;50.934;6.934;2023-08-06T13:04:00;0.50;;;0.50;;
5175;SDS011;2607;50.934;6.934;2023-08-06T13:06:26;0.50;;;0.50;;
5175;SDS011;2607;50.934;6.934;2023-08-06T13:08:51;0.50;;;0.50;;
5175;SDS011;2607;50.934;6.934;2023-08-06T13:11:17;0.50;;;0.50;;
5175;SDS011;2607;50.934;6.934;2023-08-06T13:13:44;0.50;;;0.50;;
5175;SDS011;2607;50.934;6.934;2023-08-06T13:16:09;1.13;;;1.13;;
5175;SDS011;2607;50.934;6.934;2023-08-06T13:18:35;0.50;;;0.50;;
5175;SDS011;2607;50.934;6.934;2023-08-06T13:21:00;0.50;;;0.50;;
5175;SDS011;2607;50.934;6.934;2023-08-06T13:23:26;0.50;;;0.50;;
5175;SDS011;2607;50.934;6.934;2023-08-06T13:25:51;0.50;;;0.50;;
5175;SDS011;2607;50.934;6.934;2023-08-06T13:28:17;0.80;;;0.80;;
5175;SDS011;2607;50.934;6.934;2023-08-06T13:30:43;0.50;;;0.50;;
5175;SDS011;2607;50.934;6.934;2023-08-06T13:33:09;0.50;;;0.50;;
5175;SDS011;2607;50.934;6.934;2023-08-06T13:35:35;0.50;;;0.50;;
5175;SDS011;2607;50.934;6.934;2023-08-06T13:38:00;0.50;;;0.50;;
5175;SDS011;2607;50.934;6.934;2023-08-06T13:40:29;0.40;;;0.40;;
5175;SDS011;2607;50.934;6.934;2023-08-06T13:42:57;0.50;;;0.50;;
5175;SDS011;2607;50.934;6.934;2023-08-06T13:45:23;0.50;;;0.50;;
5175;SDS011;2607;50.934;6.934;2023-08-06T13:47:48;0.50;;;0.50;;
5175;SDS011;2607;50.934;6.934;2023-08-06T13:50:14;0.60;;;0.60;;
5175;SDS011;2607;50.934;6.934;2023-08-06T13:52:39;0.50;;;0.50;;
5175;SDS011;2607;50.934;6.934;2023-08-06T13:55:05;0.50;;;0.50;;
5175;SDS011;2607;50.934;6.934;2023-08-06T13:57:32;0.50;;;0.50;;
5175;SDS011;2607;50.934;6.934;2023-08-06T13:59:59;0.50;;;0.50;;
5175;SDS011;2607;50.934;6.934;2023-08-06T14:02:24;2.13;;;1.93;;
5175;SDS011;2607;50.934;6.934;2023-08-06T14:04:51;0.50;;;0.50;;
5175;SDS011;2607;50.934;6.934;2023-08-06T14:07:17;0.50;;;0.50;;
5175;SDS011;2607;50.934;6.934;2023-08-06T14:09:43;0.50;;;0.50;;
5175;SDS011;2607;50.934;6.934;2023-08-06T14:12:09;0.80;;;0.80;;
5175;SDS011;2607;50.934;6.934;2023-08-06T14:14:35;0.50;;;0.50;;
5175;SDS011;2607;50.934;6.934;2023-08-06T14:17:00;0.50;;;0.50;;
5175;SDS011;2607;50.934;6.934;2023-08-06T14:19:26;0.50;;;0.50;;
5175;SDS011;2607;50.934;6.934;2023-08-06T14:21:51;0.50;;;0.50;;
5175;SDS011;2607;50.934;6.934;2023-08-06T14:24:17;0.50;;;0.50;;
5175;SDS011;2607;50.934;6.934;2023-08-06T14:26:43;0.80;;;0.80;;
5175;SDS011;2607;50.934;6.934;2023-08-06T14:29:09;0.50;;;0.50;;
5175;SDS011;2607;50.934;6.934;2023-08-06T14:31:34;1.23;;;1.13;;
5175;SDS011;2607;50.934;6.934;2023-08-06T14:34:00;0.50;;;0.50;;
5175;SDS011;2607;50.934;6.934;2023-08-06T14:36:26;0.50;;;0.50;;
5175;SDS011;2607;50.934;6.934;2023-08-06T14:38:51;1.83;;;1.73;;
5175;SDS011;2607;50.934;6.934;2023-08-06T14:41:17;0.60;;;0.60;;
5175;SDS011;2607;50.934;6.934;2023-08-06T14:43:42;0.50;;;0.50;;
5175;SDS011;2607;50.934;6.934;2023-08-06T14:46:08;0.50;;;0.50;;
5175;SDS011;2607;50.934;6.934;2023-08-06T14:48:33;0.50;;;0.50;;
5175;SDS011;2607;50.934;6.934;2023-08-06T14:50:59;1.00;;;1.00;;
5175;SDS011;2607;50.934;6.934;2023-08-06T14:53:25;0.50;;;0.50;;
5175;SDS011;2607;50.934;6.934;2023-08-06T14:55:50;0.50;;;0.50;;
5175;SDS011;2607;50.934;6.934;2023-08-06T14:58:16;0.50;;;0.50;;
5175;SDS011;2607;50.934;6.934;2023-08-06T15:00:41;0.50;;;0.50;;
5175;SDS011;2607;50.934;6.934;2023-08-06T15:03:07;0.50;;;0.50;;
5175;SDS011;2607;50.934;6.934;2023-08-06T15:05:32;0.90;;;0.90;;
5175;SDS011;2607;50.934;6.934;2023-08-06T15:07:58;0.50;;;0.50;;
5175;SDS011;2607;50.934;6.934;2023-08-06T15:10:24;0.50;;;0.50;;
5175;SDS011;2607;50.934;6.934;2023-08-06T15:12:50;1.93;;;1.83;;
5175;SDS011;2607;50.934;6.934;2023-08-06T15:15:15;0.50;;;0.50;;
5175;SDS011;2607;50.934;6.934;2023-08-06T15:17:41;0.50;;;0.50;;
5175;SDS011;2607;50.934;6.934;2023-08-06T15:20:07;0.50;;;0.50;;
5175;SDS011;2607;50.934;6.934;2023-08-06T15:22:33;0.50;;;0.50;;
5175;SDS011;2607;50.934;6.934;2023-08-06T15:25:02;0.67;;;0.67;;
5175;SDS011;2607;50.934;6.934;2023-08-06T15:27:29;0.50;;;0.50;;
5175;SDS011;2607;50.934;6.934;2023-08-06T15:29:54;0.70;;;0.70;;